Time;durP1;ratioP1;P1;durP2;ratioP2;P2;SDS_P1;SDS_P2;PMS_P1;PMS_P2;Temp;Humidity;BMP_temperature;BMP_pressure;BME280_temperature;BME280_humidity;BME280_pressure;Samples;Min_cycle;Max_cycle;Signal;HPM_P1;HPM_P2
2022/08/02 00:01:24;;;;;;;4.10;3.70;;;18.10;99.90;;;;;;5007919;28;20187;-53
2022/08/02 00:03:49;;;;;;;3.77;3.47;;;18.00;99.90;;;;;;5019899;28;20262;-54
2022/08/02 00:06:15;;;;;;;3.80;3.60;;;18.00;99.90;;;;;;5016986;28;20192;-52
2022/08/02 00:08:41;;;;;;;4.00;3.70;;;17.90;99.90;;;;;;5026728;28;20217;-53
2022/08/02 00:11:06;;;;;;;4.00;3.70;;;17.90;99.90;;;;;;5020446;28;20274;-56
2022/08/02 00:13:32;;;;;;;3.60;3.40;;;17.90;99.90;;;;;;5008257;28;20211;-51
2022/08/02 00:15:58;;;;;;;4.00;3.70;;;17.90;99.90;;;;;;5017819;28;20210;-53
2022/08/02 00:18:23;;;;;;;3.90;3.60;;;17.90;99.90;;;;;;5011035;28;20205;-52
2022/08/02 00:20:49;;;;;;;3.67;3.43;;;17.90;99.90;;;;;;5025694;28;20187;-53
2022/08/02 00:23:15;;;;;;;4.20;3.90;;;17.80;99.90;;;;;;5011664;28;20586;-52
2022/08/02 00:25:41;;;;;;;3.80;3.60;;;17.80;99.90;;;;;;5011480;28;20177;-52
2022/08/02 00:28:06;;;;;;;3.73;3.43;;;17.80;99.90;;;;;;5014559;28;20237;-54
2022/08/02 00:30:32;;;;;;;3.60;3.40;;;17.70;99.90;;;;;;5014505;28;20448;-55
2022/08/02 00:32:58;;;;;;;3.40;3.20;;;17.70;99.90;;;;;;5013871;28;20585;-53
2022/08/02 00:35:23;;;;;;;3.87;3.67;;;17.70;99.90;;;;;;5008457;28;20191;-54
2022/08/02 00:37:49;;;;;;;4.93;3.90;;;17.60;99.90;;;;;;5021511;28;20201;-50
2022/08/02 00:40:15;;;;;;;3.77;3.47;;;17.60;99.90;;;;;;5034399;28;20198;-53
2022/08/02 00:42:40;;;;;;;3.43;3.13;;;17.60;99.90;;;;;;5026193;28;20288;-54
2022/08/02 00:45:07;;;;;;;4.43;3.80;;;17.60;99.90;;;;;;5022269;28;20604;-51
2022/08/02 00:47:32;;;;;;;3.43;3.23;;;17.50;99.90;;;;;;5013797;28;20266;-52
2022/08/02 00:49:58;;;;;;;3.70;3.50;;;17.50;99.90;;;;;;5007544;28;20544;-53
2022/08/02 00:52:23;;;;;;;4.00;3.70;;;17.50;99.90;;;;;;5014675;28;20198;-51
2022/08/02 00:54:49;;;;;;;3.73;3.43;;;17.40;99.90;;;;;;5013162;28;20315;-54
2022/08/02 00:57:15;;;;;;;4.20;3.90;;;17.40;99.90;;;;;;5019189;28;20199;-54
2022/08/02 00:59:41;;;;;;;3.47;3.27;;;17.30;99.90;;;;;;5023736;28;20524;-48
2022/08/02 01:02:07;;;;;;;4.43;4.03;;;17.30;99.90;;;;;;5007999;28;20264;-54
2022/08/02 01:04:33;;;;;;;4.60;4.20;;;17.20;99.90;;;;;;5016442;28;20201;-50
2022/08/02 01:07:04;;;;;;;4.23;3.90;;;17.20;99.90;;;;;;5016979;28;20920;-54
2022/08/02 01:09:29;;;;;;;4.30;3.57;;;17.20;99.90;;;;;;5012038;28;20176;-54
2022/08/02 01:11:55;;;;;;;3.87;3.57;;;17.20;99.90;;;;;;5019460;28;20519;-52
2022/08/02 01:14:23;;;;;;;4.40;4.00;;;17.10;99.90;;;;;;5013815;28;20186;-53
2022/08/02 01:17:05;;;;;;;4.00;3.70;;;17.10;99.90;;;;;;5011668;28;20510;-52
2022/08/02 01:19:35;;;;;;;3.97;3.67;;;17.00;99.90;;;;;;5029094;28;20437;-52
2022/08/02 01:22:37;;;;;;;3.93;3.63;;;16.90;99.90;;;;;;5022061;28;20513;-51
2022/08/02 01:25:32;;;;;;;4.43;4.13;;;16.90;99.90;;;;;;5011326;28;20439;-50
2022/08/02 01:28:39;;;;;;;4.10;3.80;;;16.80;99.90;;;;;;5012035;28;20895;-54
2022/08/02 01:31:31;;;;;;;4.33;4.03;;;16.80;99.90;;;;;;5010419;28;20448;-51
2022/08/02 01:34:05;;;;;;;4.10;3.80;;;16.70;99.90;;;;;;5001939;28;20449;-50
2022/08/02 01:36:38;;;;;;;4.20;3.90;;;16.70;99.90;;;;;;5013307;28;20447;-53
2022/08/02 01:39:08;;;;;;;4.13;3.83;;;16.60;99.90;;;;;;5029484;28;20435;-54
2022/08/02 01:41:34;;;;;;;4.30;4.00;;;16.60;99.90;;;;;;5021688;28;20437;-49
2022/08/02 01:44:01;;;;;;;4.97;4.57;;;16.60;99.90;;;;;;5016616;28;20431;-51
2022/08/02 01:46:30;;;;;;;4.53;4.13;;;16.60;99.90;;;;;;5018716;28;20503;-50
2022/08/02 01:48:58;;;;;;;4.33;3.97;;;16.60;99.90;;;;;;5011359;28;20476;-53
2022/08/02 01:52:26;;;;;;;4.53;4.23;;;16.50;99.90;;;;;;5021988;28;20444;-55
2022/08/02 01:54:23;;;;;;;4.37;4.07;;;16.50;99.90;;;;;;5016130;28;20465;-57
2022/08/02 01:56:50;;;;;;;4.27;3.97;;;16.50;99.90;;;;;;5007493;28;20528;-57
2022/08/02 01:59:19;;;;;;;4.20;3.90;;;16.40;99.90;;;;;;5013495;28;20482;-50
2022/08/02 02:01:48;;;;;;;4.67;4.30;;;16.40;99.90;;;;;;5011229;28;21104;-50
2022/08/02 02:04:15;;;;;;;4.80;4.43;;;16.40;99.90;;;;;;5029195;28;20448;-53
2022/08/02 02:06:43;;;;;;;4.37;4.07;;;16.30;99.90;;;;;;5018335;28;20508;-52
2022/08/02 02:09:11;;;;;;;4.60;4.20;;;16.30;99.90;;;;;;5029568;28;20444;-52
2022/08/02 02:11:38;;;;;;;4.43;3.87;;;16.30;99.90;;;;;;5010109;28;20449;-57
2022/08/02 02:14:06;;;;;;;4.37;4.07;;;16.20;99.90;;;;;;5012340;28;21240;-51
2022/08/02 02:16:33;;;;;;;4.20;3.90;;;16.20;99.90;;;;;;5009839;28;20437;-50
2022/08/02 02:19:01;;;;;;;4.83;4.43;;;16.20;99.90;;;;;;5014831;28;20443;-53
2022/08/02 02:21:27;;;;;;;4.97;4.57;;;16.20;99.90;;;;;;5017916;28;20471;-52
2022/08/02 02:23:53;;;;;;;4.60;4.27;;;16.10;99.90;;;;;;5019990;28;20540;-55
2022/08/02 02:26:19;;;;;;;4.67;4.27;;;16.10;99.90;;;;;;5012889;28;20531;-54
2022/08/02 02:28:46;;;;;;;6.20;5.40;;;16.10;99.90;;;;;;5010277;28;20184;-54
2022/08/02 02:31:17;;;;;;;5.00;4.50;;;16.10;99.90;;;;;;5009480;28;20493;-52
2022/08/02 02:33:49;;;;;;;6.03;5.53;;;16.00;99.90;;;;;;5012578;28;20790;-55
2022/08/02 02:36:18;;;;;;;4.47;4.17;;;16.00;99.90;;;;;;5012669;28;20434;-56
2022/08/02 02:38:44;;;;;;;4.40;4.10;;;16.00;99.90;;;;;;5015055;28;20465;-53
2022/08/02 02:41:12;;;;;;;4.10;3.80;;;16.00;99.90;;;;;;5010480;28;20525;-52
2022/08/02 02:43:40;;;;;;;4.97;4.67;;;16.00;99.90;;;;;;5017822;28;20483;-55
2022/08/02 02:46:07;;;;;;;4.10;3.80;;;16.00;99.90;;;;;;5022369;28;20999;-51
2022/08/02 02:48:34;;;;;;;4.40;4.10;;;16.00;99.90;;;;;;5016350;28;20444;-56
2022/08/02 02:51:02;;;;;;;4.20;3.90;;;16.00;99.90;;;;;;5014576;28;20440;-55
2022/08/02 02:53:29;;;;;;;5.17;4.67;;;15.90;99.90;;;;;;5011654;28;20477;-50
2022/08/02 02:55:55;;;;;;;5.10;4.60;;;15.90;99.90;;;;;;5014100;28;20788;-54
2022/08/02 02:58:22;;;;;;;4.83;4.53;;;15.90;99.90;;;;;;5010006;28;20498;-52
2022/08/02 03:03:33;;;;;;;4.87;4.53;;;15.90;99.90;;;;;;5010442;28;20877;-52
2022/08/02 03:05:59;;;;;;;4.77;4.47;;;15.90;99.90;;;;;;5015383;28;20437;-52
2022/08/02 03:08:24;;;;;;;4.47;4.10;;;15.90;99.90;;;;;;5010337;28;20439;-52
2022/08/02 03:10:50;;;;;;;4.83;4.43;;;15.80;99.90;;;;;;5010436;28;20180;-53
2022/08/02 03:13:18;;;;;;;4.80;4.47;;;15.80;99.90;;;;;;5011248;28;20272;-50
2022/08/02 03:15:45;;;;;;;4.80;4.50;;;15.70;99.90;;;;;;5012410;28;20525;-54
2022/08/02 03:18:29;;;;;;;5.20;4.77;;;15.70;99.90;;;;;;5018660;28;20446;-55
2022/08/02 03:20:59;;;;;;;5.37;4.80;;;15.70;99.90;;;;;;5018633;28;20437;-55
2022/08/02 03:23:24;;;;;;;5.57;5.17;;;15.70;99.90;;;;;;5022750;28;20463;-52
2022/08/02 03:25:50;;;;;;;5.10;4.70;;;15.70;99.90;;;;;;5014714;28;20450;-52
2022/08/02 03:28:16;;;;;;;4.93;4.53;;;15.70;99.90;;;;;;5025252;28;20187;-53
2022/08/02 03:30:41;;;;;;;5.23;4.83;;;15.60;99.90;;;;;;5007905;28;20206;-52
2022/08/02 03:33:07;;;;;;;5.20;4.77;;;15.60;99.90;;;;;;5009639;28;20270;-56
2022/08/02 03:35:33;;;;;;;5.00;4.47;;;15.60;99.90;;;;;;5008890;28;20233;-53
2022/08/02 03:38:00;;;;;;;5.13;4.73;;;15.60;99.90;;;;;;5029001;28;20202;-50
2022/08/02 03:40:27;;;;;;;5.57;5.10;;;15.70;99.90;;;;;;5010432;28;20501;-53
2022/08/02 03:42:53;;;;;;;5.80;5.30;;;15.70;99.90;;;;;;5009303;28;21227;-54
2022/08/02 03:45:19;;;;;;;5.67;5.17;;;15.60;99.90;;;;;;5017556;28;20948;-56
2022/08/02 03:47:45;;;;;;;5.60;5.10;;;15.60;99.90;;;;;;5003324;28;20434;-50
2022/08/02 03:50:12;;;;;;;6.10;5.60;;;15.60;99.90;;;;;;5014280;28;20434;-53
2022/08/02 03:52:40;;;;;;;6.00;5.50;;;15.60;99.90;;;;;;5010157;28;20557;-50
2022/08/02 03:55:06;;;;;;;5.40;4.90;;;15.60;99.90;;;;;;5016981;28;20464;-53
2022/08/02 03:57:32;;;;;;;5.60;5.20;;;15.60;99.90;;;;;;5008906;28;20458;-53
2022/08/02 03:59:58;;;;;;;5.57;5.07;;;15.60;99.90;;;;;;5023200;28;20497;-54
2022/08/02 04:02:23;;;;;;;5.47;5.03;;;15.60;99.90;;;;;;5023751;28;20876;-52
2022/08/02 04:04:49;;;;;;;4.83;4.43;;;15.60;99.90;;;;;;5007754;28;20692;-52
2022/08/02 04:07:14;;;;;;;5.27;4.87;;;15.60;99.90;;;;;;5009875;28;20207;-51
2022/08/02 04:09:40;;;;;;;5.40;5.00;;;15.70;99.90;;;;;;5005511;28;20227;-51
2022/08/02 04:12:06;;;;;;;5.27;4.87;;;15.70;99.90;;;;;;5009327;28;20207;-49
2022/08/02 04:14:31;;;;;;;5.50;5.10;;;15.70;99.90;;;;;;5014359;28;20317;-48
2022/08/02 04:17:09;;;;;;;5.40;5.00;;;15.80;99.90;;;;;;5008703;28;20189;-52
2022/08/02 04:19:48;;;;;;;4.93;4.53;;;15.90;99.90;;;;;;4997772;28;20941;-52
2022/08/02 04:22:49;;;;;;;5.63;5.07;;;15.90;99.90;;;;;;5023194;28;21273;-52
2022/08/02 04:25:15;;;;;;;5.40;5.00;;;16.00;99.90;;;;;;5000496;28;20502;-56
2022/08/02 04:27:42;;;;;;;4.97;4.57;;;16.00;99.90;;;;;;5005691;28;20797;-52
2022/08/02 04:30:08;;;;;;;5.87;5.37;;;16.00;99.90;;;;;;5003858;28;20493;-52
2022/08/02 04:32:34;;;;;;;5.30;4.90;;;16.10;99.90;;;;;;5016932;28;20471;-54
2022/08/02 04:35:00;;;;;;;5.43;4.90;;;16.10;99.90;;;;;;5009024;28;20932;-53
2022/08/02 04:37:26;;;;;;;5.27;4.87;;;16.20;99.90;;;;;;5011820;28;20434;-52
2022/08/02 04:39:52;;;;;;;5.47;5.00;;;16.20;99.90;;;;;;5014919;28;20285;-53
2022/08/02 04:42:22;;;;;;;4.70;4.30;;;16.30;99.90;;;;;;5011928;28;20553;-54
2022/08/02 04:44:49;;;;;;;5.80;5.30;;;16.30;99.90;;;;;;5015791;28;20444;-53
2022/08/02 04:47:15;;;;;;;5.10;4.70;;;16.30;99.90;;;;;;5016291;28;20435;-52
2022/08/02 04:49:40;;;;;;;5.97;5.57;;;16.30;99.90;;;;;;5030428;28;20431;-54
2022/08/02 04:52:06;;;;;;;5.80;5.40;;;16.40;99.90;;;;;;5021502;28;20467;-54
2022/08/02 04:54:31;;;;;;;5.90;5.40;;;16.50;99.90;;;;;;5030193;28;20597;-53
2022/08/02 04:56:57;;;;;;;5.87;5.40;;;16.60;99.90;;;;;;5032938;28;20185;-54
2022/08/02 04:59:23;;;;;;;5.30;4.90;;;16.80;99.90;;;;;;5005744;28;20291;-52
2022/08/02 05:01:48;;;;;;;5.30;4.80;;;16.90;99.90;;;;;;5015565;28;20194;-55
2022/08/02 05:04:14;;;;;;;5.63;5.23;;;17.00;99.90;;;;;;5029704;28;20196;-51
2022/08/02 05:06:39;;;;;;;5.40;5.00;;;17.00;99.90;;;;;;5028118;28;20194;-58
2022/08/02 05:09:05;;;;;;;5.03;4.63;;;17.20;99.90;;;;;;5031574;28;20276;-49
2022/08/02 05:11:31;;;;;;;5.70;5.20;;;17.30;99.90;;;;;;5015346;28;20182;-55
2022/08/02 05:13:56;;;;;;;5.00;4.60;;;17.30;99.90;;;;;;5008251;28;20215;-53
2022/08/02 05:16:22;;;;;;;5.07;4.67;;;17.40;99.90;;;;;;5024096;28;20298;-54
2022/08/02 05:18:49;;;;;;;6.00;5.50;;;17.40;99.90;;;;;;5015256;28;20432;-57
2022/08/02 05:21:15;;;;;;;5.40;5.00;;;17.50;99.90;;;;;;5023646;28;20175;-54
2022/08/02 05:23:41;;;;;;;5.40;4.80;;;17.70;99.90;;;;;;5032444;28;20425;-53
2022/08/02 05:26:06;;;;;;;5.40;4.87;;;17.90;99.90;;;;;;5032271;28;20645;-50
2022/08/02 05:28:32;;;;;;;5.07;4.67;;;17.90;99.90;;;;;;5030980;28;20205;-50
2022/08/02 05:30:57;;;;;;;5.60;5.10;;;18.00;99.90;;;;;;5025263;28;20195;-55
2022/08/02 05:33:23;;;;;;;5.50;5.00;;;18.00;99.90;;;;;;5013805;28;20346;-53
2022/08/02 05:35:49;;;;;;;5.20;4.80;;;18.00;99.90;;;;;;5014653;28;20195;-54
2022/08/02 05:38:14;;;;;;;5.90;5.47;;;18.10;99.90;;;;;;5014071;28;20198;-55
2022/08/02 05:40:40;;;;;;;5.93;5.40;;;18.20;99.90;;;;;;5011984;28;20593;-55
2022/08/02 05:43:15;;;;;;;5.67;5.17;;;18.30;99.90;;;;;;5010279;28;20214;-55
2022/08/02 05:45:41;;;;;;;5.73;5.33;;;18.40;99.90;;;;;;5021452;28;20200;-54
2022/08/02 05:48:06;;;;;;;5.50;4.43;;;18.40;99.90;;;;;;5022570;28;20502;-53
2022/08/02 05:50:43;;;;;;;5.40;4.90;;;18.50;99.90;;;;;;5022963;28;20509;-50
2022/08/02 05:53:38;;;;;;;4.80;4.40;;;18.70;99.90;;;;;;5014893;28;20608;-56
2022/08/02 05:56:42;;;;;;;5.30;4.80;;;18.70;99.90;;;;;;5000992;28;20489;-56
2022/08/02 05:59:32;;;;;;;5.10;4.70;;;18.80;99.90;;;;;;5030137;28;20461;-52
2022/08/02 06:02:02;;;;;;;5.20;4.77;;;19.00;99.90;;;;;;5010082;28;20777;-55
2022/08/02 06:05:13;;;;;;;5.40;5.00;;;19.10;99.90;;;;;;5021140;28;20469;-52
2022/08/02 06:07:43;;;;;;;5.27;4.57;;;19.30;99.90;;;;;;4989464;28;20439;-54
2022/08/02 06:10:14;;;;;;;5.27;4.87;;;19.60;99.90;;;;;;4989938;28;20455;-54
2022/08/02 06:13:04;;;;;;;4.70;4.30;;;19.70;99.90;;;;;;4976114;28;20476;-53
2022/08/02 06:15:30;;;;;;;4.93;4.53;;;19.80;99.90;;;;;;4982257;28;20545;-53
2022/08/02 06:17:57;;;;;;;5.40;5.00;;;19.80;99.90;;;;;;4973508;28;20977;-55
2022/08/02 06:20:25;;;;;;;4.93;4.63;;;19.90;99.90;;;;;;4983601;28;20604;-51
2022/08/02 06:22:51;;;;;;;5.20;4.80;;;20.00;99.90;;;;;;4987852;28;20494;-53
2022/08/02 06:25:19;;;;;;;5.90;5.50;;;20.10;99.90;;;;;;4987699;28;20542;-53
2022/08/02 06:27:48;;;;;;;5.40;5.00;;;19.90;99.90;;;;;;4972429;28;20447;-55
2022/08/02 06:30:13;;;;;;;5.33;4.93;;;19.80;99.90;;;;;;4988196;28;20914;-56
2022/08/02 06:32:40;;;;;;;5.63;5.23;;;19.80;99.90;;;;;;4972136;28;20471;-54
2022/08/02 06:35:06;;;;;;;6.23;5.77;;;19.90;99.90;;;;;;4975702;28;20675;-55
2022/08/02 06:37:55;;;;;;;6.73;6.13;;;20.00;99.90;;;;;;4987332;28;20797;-54
2022/08/02 06:40:31;;;;;;;6.33;5.77;;;20.20;99.90;;;;;;5008074;28;20434;-52
2022/08/02 06:43:12;;;;;;;6.50;5.90;;;20.30;99.90;;;;;;5021841;28;20422;-54
2022/08/02 06:45:38;;;;;;;6.50;5.93;;;20.50;99.90;;;;;;5006108;28;20468;-56
2022/08/02 06:48:05;;;;;;;6.03;5.63;;;20.70;99.90;;;;;;5011278;28;20882;-54
2022/08/02 06:50:31;;;;;;;5.80;5.40;;;20.90;99.90;;;;;;5012048;28;20427;-53
2022/08/02 06:52:57;;;;;;;7.33;5.97;;;21.00;99.90;;;;;;5010808;28;20477;-52
2022/08/02 06:55:22;;;;;;;6.10;5.70;;;21.20;99.90;;;;;;5012429;28;20191;-51
2022/08/02 06:57:48;;;;;;;6.00;5.50;;;21.30;99.90;;;;;;5009482;28;20196;-54
2022/08/02 07:00:14;;;;;;;6.60;6.10;;;21.40;99.90;;;;;;5013656;28;20263;-55
2022/08/02 07:02:39;;;;;;;6.40;5.90;;;21.60;99.90;;;;;;5011068;28;20268;-57
2022/08/02 07:05:06;;;;;;;6.03;5.63;;;21.70;99.90;;;;;;5030420;28;21129;-55
2022/08/02 07:07:32;;;;;;;6.00;5.50;;;21.80;99.90;;;;;;5014781;28;20269;-52
2022/08/02 07:09:59;;;;;;;6.90;6.30;;;21.90;99.90;;;;;;5016443;28;20781;-54
2022/08/02 07:12:25;;;;;;;6.00;5.50;;;22.00;99.90;;;;;;5016305;28;20522;-53
2022/08/02 07:14:51;;;;;;;6.17;5.70;;;22.00;99.90;;;;;;5028179;28;20510;-53
2022/08/02 07:17:17;;;;;;;6.80;6.33;;;22.10;99.90;;;;;;5029251;28;20432;-50
2022/08/02 07:19:43;;;;;;;6.10;5.60;;;22.10;99.90;;;;;;5025692;28;20767;-55
2022/08/02 07:22:08;;;;;;;6.83;6.30;;;22.20;99.90;;;;;;5010105;28;20658;-51
2022/08/02 07:24:34;;;;;;;6.30;5.90;;;22.20;99.90;;;;;;5013651;28;20618;-52
2022/08/02 07:27:00;;;;;;;6.87;6.30;;;22.30;99.90;;;;;;5030297;28;20187;-52
2022/08/02 07:29:26;;;;;;;7.40;6.70;;;22.50;99.90;;;;;;5028264;28;20183;-54
2022/08/02 07:31:51;;;;;;;6.00;5.50;;;22.70;99.90;;;;;;5026803;28;20179;-55
2022/08/02 07:34:17;;;;;;;6.27;5.63;;;22.70;99.90;;;;;;5009960;28;20854;-53
2022/08/02 07:36:43;;;;;;;6.00;5.60;;;22.90;99.90;;;;;;5014154;28;20180;-49
2022/08/02 07:39:08;;;;;;;6.53;6.00;;;23.10;99.90;;;;;;5006561;28;20188;-53
2022/08/02 07:41:35;;;;;;;6.33;5.83;;;23.30;99.90;;;;;;5009507;28;20183;-50
2022/08/02 07:44:01;;;;;;;5.80;5.30;;;23.50;99.90;;;;;;5009896;28;20234;-55
2022/08/02 07:46:27;;;;;;;6.20;5.80;;;23.60;99.90;;;;;;5023026;28;20452;-57
2022/08/02 07:48:53;;;;;;;6.13;5.57;;;23.60;99.90;;;;;;5010903;28;20935;-52
2022/08/02 07:51:20;;;;;;;6.10;5.70;;;23.90;99.90;;;;;;5027093;28;20186;-53
2022/08/02 07:53:45;;;;;;;5.93;5.53;;;23.90;99.90;;;;;;5020887;28;20456;-55
2022/08/02 07:56:11;;;;;;;6.40;5.90;;;24.00;99.90;;;;;;5010195;28;20445;-56
2022/08/02 07:58:37;;;;;;;5.93;5.43;;;24.10;99.80;;;;;;5022098;28;20175;-52
2022/08/02 08:01:02;;;;;;;7.20;6.60;;;24.10;99.50;;;;;;5008424;28;20616;-54
2022/08/02 08:03:28;;;;;;;6.57;6.00;;;24.20;97.70;;;;;;5019743;28;20190;-49
2022/08/02 08:05:54;;;;;;;6.40;5.90;;;24.20;98.10;;;;;;5012675;28;20946;-54
2022/08/02 08:08:20;;;;;;;6.03;5.53;;;24.30;98.10;;;;;;5018700;28;20191;-55
2022/08/02 08:10:46;;;;;;;6.00;5.70;;;24.40;98.00;;;;;;5028780;28;20218;-55
2022/08/02 08:13:12;;;;;;;7.27;6.77;;;24.60;97.60;;;;;;5029484;28;21007;-53
2022/08/02 08:15:37;;;;;;;6.80;6.30;;;24.80;97.00;;;;;;5027758;28;20419;-57
2022/08/02 08:18:03;;;;;;;7.40;6.60;;;25.00;95.60;;;;;;5016597;28;20187;-53
2022/08/02 08:20:28;;;;;;;6.60;6.10;;;25.00;95.00;;;;;;5016913;28;20192;-52
2022/08/02 08:22:54;;;;;;;6.40;5.90;;;24.90;95.50;;;;;;5017181;28;20299;-55
2022/08/02 08:25:20;;;;;;;6.03;5.63;;;25.00;95.80;;;;;;5022134;28;20183;-54
2022/08/02 08:27:50;;;;;;;5.70;5.30;;;25.10;94.30;;;;;;5008647;28;20195;-55
2022/08/02 08:30:15;;;;;;;5.90;5.50;;;25.30;93.20;;;;;;5021620;28;20193;-57
2022/08/02 08:32:41;;;;;;;5.77;5.40;;;25.30;93.40;;;;;;5017955;28;20460;-56
2022/08/02 08:35:07;;;;;;;6.17;5.77;;;25.30;94.20;;;;;;5020774;28;20215;-54
2022/08/02 08:37:36;;;;;;;5.80;5.40;;;25.40;94.20;;;;;;5029291;28;20242;-53
2022/08/02 08:40:07;;;;;;;5.93;5.43;;;25.40;93.80;;;;;;5029155;28;20416;-54
2022/08/02 08:42:36;;;;;;;6.10;5.70;;;25.60;93.60;;;;;;5011183;28;20955;-56
2022/08/02 08:45:02;;;;;;;6.00;5.50;;;25.70;93.20;;;;;;5009381;28;20838;-53
2022/08/02 08:47:40;;;;;;;6.10;5.70;;;25.80;93.30;;;;;;5017107;28;20468;-54
2022/08/02 08:50:09;;;;;;;5.93;5.60;;;26.00;91.90;;;;;;5007961;28;20459;-53
2022/08/02 08:52:41;;;;;;;5.67;5.27;;;26.10;90.70;;;;;;5023096;28;20460;-55
2022/08/02 08:55:10;;;;;;;6.47;6.07;;;26.20;90.60;;;;;;5011512;28;20438;-54
2022/08/02 08:57:40;;;;;;;7.00;6.60;;;26.20;90.40;;;;;;5009164;28;20425;-54
2022/08/02 09:00:07;;;;;;;5.97;5.67;;;26.30;89.10;;;;;;5008655;28;20566;-55
2022/08/02 09:02:35;;;;;;;7.53;7.03;;;26.30;90.50;;;;;;5024428;28;20471;-53
2022/08/02 09:05:00;;;;;;;7.50;7.00;;;26.30;86.90;;;;;;5010560;28;20459;-53
2022/08/02 09:07:27;;;;;;;7.80;7.30;;;26.40;89.10;;;;;;5022509;28;20420;-54
2022/08/02 09:09:53;;;;;;;7.63;7.17;;;26.40;87.50;;;;;;5012181;28;20217;-58
2022/08/02 09:12:23;;;;;;;7.60;7.20;;;26.50;83.70;;;;;;5022125;28;20470;-56
2022/08/02 09:14:49;;;;;;;7.80;7.10;;;26.40;84.60;;;;;;5013519;28;20447;-56
2022/08/02 09:17:15;;;;;;;7.30;6.90;;;26.30;84.80;;;;;;5014611;28;20428;-51
2022/08/02 09:19:40;;;;;;;7.13;6.67;;;26.40;86.10;;;;;;5026933;28;20178;-54
2022/08/02 09:22:11;;;;;;;7.17;6.67;;;26.70;83.50;;;;;;5023485;28;20195;-55
2022/08/02 09:24:48;;;;;;;7.20;6.80;;;26.70;83.10;;;;;;5023870;28;21183;-55
2022/08/02 09:27:16;;;;;;;6.90;6.50;;;26.80;84.30;;;;;;5007163;28;21075;-57
2022/08/02 09:29:47;;;;;;;6.70;6.30;;;26.90;83.80;;;;;;5014355;28;20833;-56
2022/08/02 09:32:13;;;;;;;7.50;7.00;;;27.00;84.10;;;;;;5025386;28;20465;-56
2022/08/02 09:34:52;;;;;;;7.10;6.60;;;27.30;82.30;;;;;;5017870;28;20445;-53
2022/08/02 09:37:29;;;;;;;7.43;6.93;;;27.50;80.40;;;;;;5032372;28;20413;-53
2022/08/02 09:39:56;;;;;;;6.70;6.33;;;27.70;79.70;;;;;;5019705;28;20422;-54
2022/08/02 09:42:21;;;;;;;7.30;6.70;;;27.80;76.70;;;;;;5017688;28;20424;-53
2022/08/02 09:45:00;;;;;;;6.80;6.50;;;27.90;75.80;;;;;;5006959;28;20439;-52
2022/08/02 09:47:27;;;;;;;6.60;6.20;;;27.90;76.70;;;;;;5024887;28;20187;-54
2022/08/02 09:49:54;;;;;;;6.80;6.40;;;28.10;71.60;;;;;;5020724;28;20529;-54
2022/08/02 09:52:31;;;;;;;5.73;5.37;;;28.40;71.80;;;;;;5028451;28;20522;-53
2022/08/02 09:55:06;;;;;;;6.67;6.27;;;28.40;72.00;;;;;;5032030;28;20472;-54
2022/08/02 09:57:37;;;;;;;6.37;5.93;;;28.60;70.10;;;;;;5032340;28;20413;-55
2022/08/02 10:00:07;;;;;;;6.57;6.20;;;28.70;67.60;;;;;;5016107;28;20477;-54
2022/08/02 10:02:32;;;;;;;6.40;5.93;;;28.80;66.60;;;;;;5022934;28;20797;-51
2022/08/02 10:04:58;;;;;;;6.73;6.33;;;29.10;67.20;;;;;;5019082;28;20425;-53
2022/08/02 10:07:23;;;;;;;6.10;5.80;;;29.20;64.00;;;;;;5015689;28;20707;-56
2022/08/02 10:09:50;;;;;;;6.90;6.50;;;29.20;63.20;;;;;;5020279;28;20203;-54
2022/08/02 10:12:16;;;;;;;7.03;6.63;;;29.20;60.40;;;;;;5014551;28;20207;-56
2022/08/02 10:14:42;;;;;;;6.47;6.07;;;29.20;61.10;;;;;;5031599;28;20429;-58
2022/08/02 10:17:08;;;;;;;5.90;5.60;;;29.10;59.10;;;;;;5010716;28;20188;-54
2022/08/02 10:19:34;;;;;;;6.77;6.37;;;29.00;59.80;;;;;;5031654;28;20418;-55
2022/08/02 10:22:10;;;;;;;5.80;5.40;;;28.70;60.30;;;;;;5016604;28;20415;-55
2022/08/02 10:24:38;;;;;;;6.60;6.30;;;28.60;61.40;;;;;;5010276;28;20184;-55
2022/08/02 10:27:06;;;;;;;5.77;5.47;;;28.50;60.30;;;;;;5011804;28;20724;-54
2022/08/02 10:29:37;;;;;;;6.37;5.97;;;28.60;64.40;;;;;;5010632;28;20430;-53
2022/08/02 10:32:07;;;;;;;6.10;5.80;;;28.80;64.70;;;;;;5010743;28;20410;-55
2022/08/02 10:34:43;;;;;;;6.23;5.93;;;29.10;61.30;;;;;;5008750;28;20438;-56
2022/08/02 10:37:12;;;;;;;6.63;6.23;;;29.30;59.40;;;;;;5011625;28;20397;-53
2022/08/02 10:39:43;;;;;;;6.00;5.60;;;29.50;58.70;;;;;;5010849;28;20458;-54
2022/08/02 10:42:09;;;;;;;6.53;5.60;;;29.80;58.00;;;;;;5010431;28;20395;-56
2022/08/02 10:44:36;;;;;;;6.87;6.47;;;29.90;57.80;;;;;;5010028;28;20834;-53
2022/08/02 10:47:13;;;;;;;6.00;5.70;;;30.20;57.00;;;;;;5015111;28;20415;-55
2022/08/02 10:49:54;;;;;;;6.20;5.90;;;30.40;56.90;;;;;;5012637;28;20806;-50
2022/08/02 10:52:24;;;;;;;6.10;5.80;;;30.60;54.10;;;;;;5011218;28;20548;-55
2022/08/02 10:54:56;;;;;;;6.17;5.87;;;30.90;54.50;;;;;;5014492;28;20430;-55
2022/08/02 10:57:31;;;;;;;6.30;5.90;;;31.00;50.30;;;;;;5020180;28;20425;-50
2022/08/02 11:00:01;;;;;;;6.50;6.20;;;31.00;50.80;;;;;;5010270;28;20465;-56
2022/08/02 11:02:36;;;;;;;5.90;5.60;;;31.10;50.30;;;;;;5011424;28;20885;-56
2022/08/02 11:05:07;;;;;;;6.03;5.60;;;31.10;49.80;;;;;;5007907;28;20797;-55
2022/08/02 11:07:39;;;;;;;6.27;5.97;;;30.90;51.20;;;;;;5011106;28;20415;-54
2022/08/02 11:10:31;;;;;;;6.20;5.90;;;31.00;51.00;;;;;;5010372;28;20511;-53
2022/08/02 11:13:07;;;;;;;6.23;5.73;;;31.20;50.80;;;;;;5010728;28;20458;-53
2022/08/02 11:16:00;;;;;;;6.30;5.90;;;31.30;48.80;;;;;;5009142;28;20831;-56
2022/08/02 11:18:45;;;;;;;5.70;5.40;;;31.00;48.00;;;;;;5008116;28;20804;-56
2022/08/02 11:21:19;;;;;;;6.90;6.40;;;30.80;48.50;;;;;;5018726;28;21327;-55
2022/08/02 11:23:45;;;;;;;5.90;5.60;;;30.70;49.40;;;;;;5006922;28;20476;-56
2022/08/02 11:26:29;;;;;;;6.50;6.20;;;30.60;48.90;;;;;;5007119;28;20422;-56
2022/08/02 11:28:59;;;;;;;6.03;5.67;;;30.70;47.70;;;;;;5005648;28;20182;-55
2022/08/02 11:31:25;;;;;;;6.20;5.90;;;30.70;48.20;;;;;;5003876;28;20457;-56
2022/08/02 11:33:51;;;;;;;6.53;5.90;;;30.70;48.60;;;;;;5003796;28;20586;-53
2022/08/02 11:36:18;;;;;;;5.70;5.40;;;31.10;47.80;;;;;;5027702;28;20508;-55
2022/08/02 11:38:44;;;;;;;5.87;5.57;;;31.10;46.20;;;;;;5021542;28;20422;-53
2022/08/02 11:41:21;;;;;;;5.70;5.40;;;31.20;47.40;;;;;;5009700;28;20434;-56
2022/08/02 11:43:53;;;;;;;5.33;5.10;;;31.50;48.20;;;;;;5023267;28;20912;-55
2022/08/02 11:46:19;;;;;;;6.50;6.10;;;31.70;45.90;;;;;;5020868;28;20927;-51
2022/08/02 11:48:45;;;;;;;5.10;4.90;;;31.90;45.80;;;;;;5018319;28;20495;-54
2022/08/02 11:51:16;;;;;;;5.83;5.53;;;32.10;44.10;;;;;;5029506;28;20187;-56
2022/08/02 11:53:42;;;;;;;5.43;5.23;;;32.30;43.90;;;;;;5035885;28;20215;-55
2022/08/02 11:56:09;;;;;;;6.17;5.27;;;32.30;44.40;;;;;;5029301;28;20920;-57
2022/08/02 11:58:35;;;;;;;5.53;5.23;;;32.50;43.20;;;;;;5017038;28;20528;-55
2022/08/02 12:01:00;;;;;;;5.70;5.40;;;32.70;41.40;;;;;;5023096;28;20461;-54
2022/08/02 12:03:26;;;;;;;5.63;5.33;;;32.50;42.70;;;;;;5008651;28;20291;-52
2022/08/02 12:05:52;;;;;;;5.70;5.40;;;32.50;40.90;;;;;;5019087;28;20201;-51
2022/08/02 12:08:21;;;;;;;5.40;5.10;;;32.30;42.10;;;;;;5020242;28;20287;-51
2022/08/02 12:10:47;;;;;;;5.77;5.47;;;32.10;42.10;;;;;;5019566;28;20210;-54
2022/08/02 12:13:13;;;;;;;5.37;5.07;;;32.10;42.80;;;;;;5025509;28;20564;-54
2022/08/02 12:15:44;;;;;;;5.60;5.30;;;32.20;42.20;;;;;;5028841;28;20563;-55
2022/08/02 12:20:55;;;;;;;5.97;5.57;;;32.70;42.20;;;;;;5010600;28;20418;-58
2022/08/02 12:23:21;;;;;;;5.13;4.63;;;32.80;38.60;;;;;;5022468;28;21008;-51
2022/08/02 12:26:02;;;;;;;5.77;5.47;;;32.50;39.10;;;;;;5010077;28;20429;-53
2022/08/02 12:28:33;;;;;;;5.90;5.60;;;32.50;38.70;;;;;;5028238;28;20563;-54
2022/08/02 12:30:59;;;;;;;5.43;5.13;;;32.60;38.80;;;;;;5028619;28;20434;-53
2022/08/02 12:33:28;;;;;;;5.70;5.30;;;32.90;40.40;;;;;;5018802;28;20999;-55
2022/08/02 12:35:55;;;;;;;5.17;4.63;;;33.40;39.30;;;;;;5012605;28;20532;-55
2022/08/02 12:38:21;;;;;;;5.67;5.37;;;33.30;37.80;;;;;;5027760;28;20457;-56
2022/08/02 12:40:47;;;;;;;4.90;4.60;;;33.30;36.60;;;;;;5010499;28;20431;-52
2022/08/02 12:43:17;;;;;;;5.00;4.73;;;33.20;36.70;;;;;;5018700;28;20480;-50
2022/08/02 12:45:53;;;;;;;5.43;5.10;;;33.00;36.20;;;;;;5011127;28;20191;-53
2022/08/02 12:48:34;;;;;;;4.63;4.43;;;32.70;36.50;;;;;;5022055;28;20924;-55
2022/08/02 12:51:43;;;;;;;5.23;4.93;;;32.70;37.50;;;;;;5008879;28;20434;-53
2022/08/02 12:54:15;;;;;;;5.80;5.50;;;33.20;36.60;;;;;;5024252;28;20491;-55
2022/08/02 12:56:42;;;;;;;5.33;5.13;;;33.60;36.70;;;;;;5016472;28;20461;-54
2022/08/02 12:59:08;;;;;;;5.43;5.10;;;34.00;34.30;;;;;;5026324;28;20565;-54
2022/08/02 13:01:34;;;;;;;5.87;5.57;;;34.40;33.80;;;;;;5011360;28;21064;-52
2022/08/02 13:04:00;;;;;;;5.70;5.40;;;34.90;33.50;;;;;;5010140;28;20528;-55